createdAt,value
2017-01-28T00:00:24.625Z,22.81
2017-01-28T00:00:53.886Z,22.81
2017-01-28T00:01:22.524Z,22.88
2017-01-28T00:01:51.057Z,22.84
2017-01-28T00:02:19.653Z,22.83
2017-01-28T00:02:48.248Z,22.83
2017-01-28T00:03:16.819Z,22.77
2017-01-28T00:03:45.342Z,22.76
2017-01-28T00:04:13.924Z,22.76
2017-01-28T00:04:42.455Z,22.73
2017-01-28T00:05:10.907Z,22.8
2017-01-28T00:05:39.642Z,22.73
2017-01-28T00:06:08.155Z,22.78
2017-01-28T00:06:36.759Z,22.73
2017-01-28T00:07:05.291Z,22.7
2017-01-28T00:07:33.886Z,22.67
2017-01-28T00:08:02.430Z,22.68
2017-01-28T00:08:31.072Z,22.68
2017-01-28T00:08:59.606Z,22.63
2017-01-28T00:09:28.203Z,22.62
2017-01-28T00:09:56.703Z,22.62
2017-01-28T00:10:25.348Z,22.62
2017-01-28T00:10:53.984Z,22.7
2017-01-28T00:11:22.597Z,22.62
2017-01-28T00:11:51.139Z,22.68
2017-01-28T00:12:19.597Z,22.63
2017-01-28T00:12:48.234Z,22.67
2017-01-28T00:13:16.865Z,22.68
2017-01-28T00:13:45.480Z,22.71
2017-01-28T00:14:14.030Z,22.67
2017-01-28T00:14:42.648Z,22.61
2017-01-28T00:15:11.170Z,22.68
2017-01-28T00:15:39.677Z,22.71
2017-01-28T00:16:08.307Z,22.74
2017-01-28T00:16:36.808Z,22.74
2017-01-28T00:17:05.427Z,22.74
2017-01-28T00:17:34.036Z,22.77
2017-01-28T00:18:02.587Z,22.77
2017-01-28T00:18:31.109Z,22.73
2017-01-28T00:18:59.626Z,22.74
2017-01-28T00:19:28.158Z,22.77
2017-01-28T00:19:56.791Z,22.73
2017-01-28T00:20:25.239Z,22.8
2017-01-28T00:20:53.867Z,22.83
2017-01-28T00:21:22.514Z,22.84
2017-01-28T00:21:51.078Z,22.86
2017-01-28T00:22:19.756Z,22.78
2017-01-28T00:22:48.446Z,22.81
2017-01-28T00:23:16.973Z,22.73
2017-01-28T00:23:45.370Z,22.7
2017-01-28T00:24:13.976Z,22.68
2017-01-28T00:24:42.493Z,22.63
2017-01-28T00:25:11.122Z,22.68
2017-01-28T00:25:39.671Z,22.62
2017-01-28T00:26:08.300Z,22.52
2017-01-28T00:26:36.943Z,22.55
2017-01-28T00:27:05.565Z,22.55
2017-01-28T00:27:34.180Z,22.4
2017-01-28T00:28:02.612Z,22.41
2017-01-28T00:28:31.233Z,22.49
2017-01-28T00:28:59.841Z,22.38
2017-01-28T00:29:28.434Z,22.4
2017-01-28T00:29:56.983Z,22.41
2017-01-28T00:30:25.426Z,22.44
2017-01-28T00:30:53.958Z,22.4
2017-01-28T00:31:22.565Z,22.41
2017-01-28T00:31:51.202Z,22.41
2017-01-28T00:32:19.648Z,22.46
2017-01-28T00:32:48.263Z,22.47
2017-01-28T00:33:16.787Z,22.38
2017-01-28T00:33:45.394Z,22.44
2017-01-28T00:34:14.019Z,22.4
2017-01-28T00:34:42.612Z,22.4
2017-01-28T00:35:11.269Z,22.4
2017-01-28T00:35:39.709Z,22.3
2017-01-28T00:36:08.325Z,22.28
2017-01-28T00:36:36.927Z,22.33
2017-01-28T00:37:05.559Z,22.31
2017-01-28T00:37:34.146Z,22.28
2017-01-28T00:38:02.782Z,22.3
2017-01-28T00:38:31.321Z,22.33
2017-01-28T00:38:59.939Z,22.28
2017-01-28T00:39:28.535Z,22.31
2017-01-28T00:39:57.168Z,22.26
2017-01-28T00:40:25.680Z,22.26
2017-01-28T00:40:54.308Z,22.26
2017-01-28T00:41:22.937Z,22.26
2017-01-28T00:41:51.428Z,22.21
2017-01-28T00:42:20.010Z,22.22
2017-01-28T00:42:48.589Z,22.22
2017-01-28T00:43:17.303Z,22.28
2017-01-28T00:43:45.924Z,22.3
2017-01-28T00:44:14.519Z,22.31
2017-01-28T00:44:43.183Z,22.26
2017-01-28T00:45:11.788Z,22.26
2017-01-28T00:45:40.415Z,22.26
2017-01-28T00:46:09.031Z,22.33
2017-01-28T00:46:37.473Z,22.28
2017-01-28T00:47:06.090Z,22.31
2017-01-28T00:47:34.638Z,22.33
2017-01-28T00:48:03.261Z,22.31
2017-01-28T00:48:31.902Z,22.36
2017-01-28T00:49:00.511Z,22.26
2017-01-28T00:49:29.100Z,22.3
2017-01-28T00:49:57.714Z,22.34
2017-01-28T00:50:26.215Z,22.36
2017-01-28T00:50:54.811Z,22.33
2017-01-28T00:51:23.337Z,22.37
2017-01-28T00:51:51.853Z,22.43
2017-01-28T00:52:20.467Z,22.37
2017-01-28T00:52:49.080Z,22.4
2017-01-28T00:53:17.668Z,22.41
2017-01-28T00:53:46.300Z,22.44
2017-01-28T00:54:14.834Z,22.46
2017-01-28T00:54:43.472Z,22.44
2017-01-28T00:55:12.091Z,22.4
2017-01-28T00:55:40.716Z,22.4
2017-01-28T00:56:09.341Z,22.41
2017-01-28T00:56:37.975Z,22.34
2017-01-28T00:57:06.535Z,22.28
2017-01-28T00:57:35.145Z,22.26
2017-01-28T00:58:03.786Z,22.31
2017-01-28T00:58:32.417Z,22.36
2017-01-28T00:59:00.991Z,22.25
2017-01-28T00:59:29.577Z,22.3
2017-01-28T00:59:58.030Z,22.3
2017-01-28T01:00:26.681Z,22.3
2017-01-28T01:00:55.311Z,22.3
2017-01-28T01:01:23.881Z,22.31
2017-01-28T01:01:52.487Z,22.26
2017-01-28T01:02:21.160Z,22.33
2017-01-28T01:02:49.676Z,22.25
2017-01-28T01:03:18.400Z,22.3
2017-01-28T01:03:47.021Z,22.34
2017-01-28T01:04:15.575Z,22.31
2017-01-28T01:04:44.228Z,22.34
2017-01-28T01:05:12.881Z,22.31
2017-01-28T01:05:41.492Z,22.33
2017-01-28T01:06:10.068Z,22.26
2017-01-28T01:06:38.711Z,22.34
2017-01-28T01:07:07.330Z,22.34
2017-01-28T01:07:35.951Z,22.23
2017-01-28T01:08:04.563Z,22.25
2017-01-28T01:08:33.183Z,22.33
2017-01-28T01:09:01.782Z,22.3
2017-01-28T01:09:30.331Z,22.31
2017-01-28T01:09:58.928Z,22.33
2017-01-28T01:10:27.430Z,22.33
2017-01-28T01:10:56.077Z,22.33
2017-01-28T01:11:24.597Z,22.31
2017-01-28T01:11:53.209Z,22.33
2017-01-28T01:12:21.799Z,22.38
2017-01-28T01:12:50.441Z,22.41
2017-01-28T01:13:19.063Z,22.4
2017-01-28T01:13:47.563Z,22.4
2017-01-28T01:14:16.168Z,22.38
2017-01-28T01:14:44.768Z,22.36
2017-01-28T01:15:13.361Z,22.4
2017-01-28T01:15:41.972Z,22.4
2017-01-28T01:16:10.499Z,22.43
2017-01-28T01:16:39.129Z,22.33
2017-01-28T01:17:07.656Z,22.33
2017-01-28T01:17:36.247Z,22.31
2017-01-28T01:18:04.873Z,22.31
2017-01-28T01:18:33.482Z,22.3
2017-01-28T01:19:02.096Z,22.21
2017-01-28T01:19:30.560Z,22.22
2017-01-28T01:19:59.180Z,22.19
2017-01-28T01:20:27.785Z,22.21
2017-01-28T01:20:56.443Z,22.18
2017-01-28T01:21:24.972Z,22.15
2017-01-28T01:21:53.589Z,22.15
2017-01-28T01:22:22.219Z,22.15
2017-01-28T01:22:50.839Z,22.14
2017-01-28T01:23:19.366Z,22.15
2017-01-28T01:23:47.959Z,22.14
2017-01-28T01:24:16.602Z,22.12
2017-01-28T01:24:45.133Z,22.15
2017-01-28T01:25:13.719Z,22.15
2017-01-28T01:25:42.317Z,22.16
2017-01-28T01:26:10.837Z,22.1
2017-01-28T01:26:39.434Z,22.22
2017-01-28T01:27:08.000Z,22.16
2017-01-28T01:27:36.524Z,22.16
2017-01-28T01:28:05.172Z,22.18
2017-01-28T01:28:33.777Z,22.12
2017-01-28T01:29:02.327Z,22.12
2017-01-28T01:29:30.886Z,22.1
2017-01-28T01:29:59.500Z,22.12
2017-01-28T01:30:28.062Z,22.1
2017-01-28T01:30:56.576Z,22.12
2017-01-28T01:31:25.192Z,22.04
2017-01-28T01:31:53.698Z,22.08
2017-01-28T01:32:22.303Z,22.08
2017-01-28T01:32:50.864Z,22.07
2017-01-28T01:33:19.470Z,22.04
2017-01-28T01:33:48.010Z,22.12
2017-01-28T01:34:16.441Z,21.99
2017-01-28T01:34:45.085Z,22.08
2017-01-28T01:35:13.684Z,22.14
2017-01-28T01:35:42.315Z,22.15
2017-01-28T01:36:10.838Z,22.12
2017-01-28T01:36:39.445Z,22.14
2017-01-28T01:37:07.962Z,22.07
2017-01-28T01:37:36.592Z,22.15
2017-01-28T01:38:05.459Z,22.14
2017-01-28T01:38:34.111Z,22.16
2017-01-28T01:39:02.727Z,22.22
2017-01-28T01:39:31.240Z,22.19
2017-01-28T01:39:59.870Z,22.16
2017-01-28T01:40:28.506Z,22.16
2017-01-28T01:40:57.147Z,22.23
2017-01-28T01:41:25.865Z,22.3
2017-01-28T01:41:54.482Z,22.28
2017-01-28T01:42:22.992Z,22.34
2017-01-28T01:42:51.598Z,22.28
2017-01-28T01:43:20.232Z,22.33
2017-01-28T01:43:48.765Z,22.33
2017-01-28T01:44:17.394Z,22.34
2017-01-28T01:44:45.996Z,22.31
2017-01-28T01:45:14.627Z,22.31
2017-01-28T01:45:43.216Z,22.26
2017-01-28T01:46:11.787Z,22.3
2017-01-28T01:46:40.318Z,22.18
2017-01-28T01:47:08.936Z,22.19
2017-01-28T01:47:37.461Z,22.22
2017-01-28T01:48:06.071Z,22.16
2017-01-28T01:48:34.635Z,22.16
2017-01-28T01:49:03.232Z,22.19
2017-01-28T01:49:31.553Z,22.18
2017-01-28T01:50:00.169Z,22.16
2017-01-28T01:50:28.790Z,22.19
2017-01-28T01:50:57.401Z,22.07
2017-01-28T01:51:25.906Z,22.12
2017-01-28T01:51:54.446Z,22.14
2017-01-28T01:52:23.044Z,22
2017-01-28T01:52:51.644Z,22.08
2017-01-28T01:53:20.240Z,22.07
2017-01-28T01:53:48.860Z,22.1
2017-01-28T01:54:17.496Z,22.1
2017-01-28T01:54:46.112Z,22.04
2017-01-28T01:55:14.643Z,22.01
2017-01-28T01:55:43.264Z,22.08
2017-01-28T01:56:11.886Z,22.1
2017-01-28T01:56:40.484Z,22.14
2017-01-28T01:57:08.926Z,22.15
2017-01-28T01:57:37.462Z,22.12
2017-01-28T01:58:06.051Z,22.15
2017-01-28T01:58:34.641Z,22.21
2017-01-28T01:59:03.267Z,22.12
2017-01-28T01:59:31.894Z,22.1
2017-01-28T02:00:00.503Z,22.08
2017-01-28T02:00:29.149Z,22.06
2017-01-28T02:00:57.689Z,22.12
2017-01-28T02:01:26.308Z,22.03
2017-01-28T02:01:54.826Z,22.03
2017-01-28T02:02:23.415Z,22.03
2017-01-28T02:02:52.029Z,22.06
2017-01-28T02:03:20.664Z,22.04
2017-01-28T02:03:49.277Z,22.04
2017-01-28T02:04:17.889Z,22
2017-01-28T02:04:46.502Z,22.04
2017-01-28T02:05:15.129Z,22.08
2017-01-28T02:05:43.773Z,22.03
2017-01-28T02:06:12.431Z,22.15
2017-01-28T02:06:41.072Z,22.15
2017-01-28T02:07:09.711Z,22.01
2017-01-28T02:07:38.328Z,22.08
2017-01-28T02:08:07.003Z,22.1
2017-01-28T02:08:35.551Z,22.12
2017-01-28T02:09:04.205Z,22.06
2017-01-28T02:09:32.800Z,22.1
2017-01-28T02:10:01.429Z,22.12
2017-01-28T02:10:30.044Z,22.12
2017-01-28T02:10:58.490Z,22.16
2017-01-28T02:11:27.132Z,22.1
2017-01-28T02:11:55.713Z,22.15
2017-01-28T02:12:24.392Z,22.08
2017-01-28T02:12:53.034Z,22.14
2017-01-28T02:13:21.608Z,22.1
2017-01-28T02:13:50.235Z,22.03
2017-01-28T02:14:18.842Z,22.06
2017-01-28T02:14:47.473Z,22.07
2017-01-28T02:15:16.089Z,22.07
2017-01-28T02:15:44.698Z,22.14
2017-01-28T02:16:13.311Z,22.14
2017-01-28T02:16:41.933Z,22.14
2017-01-28T02:17:10.583Z,22.07
2017-01-28T02:17:39.194Z,22.1
2017-01-28T02:18:07.734Z,22.04
2017-01-28T02:18:36.224Z,22.12
2017-01-28T02:19:04.679Z,22.1
2017-01-28T02:19:33.302Z,22.08
2017-01-28T02:20:01.815Z,22.14
2017-01-28T02:20:30.425Z,22.14
2017-01-28T02:20:58.940Z,22.14
2017-01-28T02:21:27.586Z,22.12
2017-01-28T02:21:56.205Z,22.1
2017-01-28T02:22:24.815Z,22
2017-01-28T02:22:53.430Z,22.01
2017-01-28T02:23:21.949Z,22.12
2017-01-28T02:23:50.567Z,22.12
2017-01-28T02:24:19.089Z,22.12
2017-01-28T02:24:47.611Z,22.04
2017-01-28T02:25:16.127Z,22.04
2017-01-28T02:25:44.744Z,22.04
2017-01-28T02:26:13.391Z,22.04
2017-01-28T02:26:41.987Z,22
2017-01-28T02:27:10.607Z,22.06
2017-01-28T02:27:39.225Z,22.03
2017-01-28T02:28:07.850Z,22.01
2017-01-28T02:28:36.499Z,21.99
2017-01-28T02:29:05.093Z,22.01
2017-01-28T02:29:33.716Z,21.96
2017-01-28T02:30:02.220Z,22.01
2017-01-28T02:30:30.828Z,21.91
2017-01-28T02:30:59.457Z,22.01
2017-01-28T02:31:27.961Z,21.97
2017-01-28T02:31:56.566Z,21.99
2017-01-28T02:32:25.187Z,21.97
2017-01-28T02:32:53.952Z,21.96
2017-01-28T02:33:22.452Z,21.91
2017-01-28T02:33:50.998Z,21.91
2017-01-28T02:34:19.527Z,21.88
2017-01-28T02:34:48.189Z,21.83
2017-01-28T02:35:16.784Z,21.91
2017-01-28T02:35:45.394Z,21.85
2017-01-28T02:36:13.946Z,21.88
2017-01-28T02:36:42.560Z,21.88
2017-01-28T02:37:11.202Z,21.89
2017-01-28T02:37:39.826Z,21.84
2017-01-28T02:38:08.440Z,21.92
2017-01-28T02:38:37.078Z,21.92
2017-01-28T02:39:05.580Z,21.94
2017-01-28T02:39:34.197Z,21.85
2017-01-28T02:40:02.795Z,21.83
2017-01-28T02:40:31.420Z,21.92
2017-01-28T02:41:00.032Z,21.94
2017-01-28T02:41:28.617Z,21.96
2017-01-28T02:41:57.259Z,21.91
2017-01-28T02:42:25.779Z,21.91
2017-01-28T02:42:54.399Z,22
2017-01-28T02:43:23.006Z,21.94
2017-01-28T02:43:51.647Z,21.97
2017-01-28T02:44:20.299Z,22
2017-01-28T02:44:48.905Z,22.06
2017-01-28T02:45:17.435Z,22.08
2017-01-28T02:45:46.062Z,22.04
2017-01-28T02:46:14.680Z,22.15
2017-01-28T02:46:43.200Z,22.08
2017-01-28T02:47:11.807Z,22.15
2017-01-28T02:47:40.424Z,22.12
2017-01-28T02:48:08.876Z,22.25
2017-01-28T02:48:37.492Z,22.12
2017-01-28T02:49:06.029Z,22.18
2017-01-28T02:49:34.648Z,22.14
2017-01-28T02:50:03.194Z,22.14
2017-01-28T02:50:31.728Z,22.1
2017-01-28T02:51:00.251Z,22.21
2017-01-28T02:51:28.761Z,22.15
2017-01-28T02:51:57.350Z,22.14
2017-01-28T02:52:25.896Z,22.08
2017-01-28T02:52:54.431Z,22.15
2017-01-28T02:53:23.044Z,22.19
2017-01-28T02:53:51.468Z,22.16
2017-01-28T02:54:20.101Z,22.1
2017-01-28T02:54:48.723Z,22.1
2017-01-28T02:55:17.318Z,22.19
2017-01-28T02:55:45.966Z,22.14
2017-01-28T02:56:14.442Z,22.12
2017-01-28T02:56:43.027Z,22.18
2017-01-28T02:57:11.650Z,22.12
2017-01-28T02:57:40.261Z,22.1
2017-01-28T02:58:08.792Z,22.04
2017-01-28T02:58:37.446Z,22.07
2017-01-28T02:59:05.982Z,22.01
2017-01-28T02:59:34.614Z,21.97
2017-01-28T03:00:03.171Z,22
2017-01-28T03:00:31.717Z,21.88
2017-01-28T03:01:00.540Z,21.85
2017-01-28T03:01:29.157Z,21.88
2017-01-28T03:01:57.757Z,21.84
2017-01-28T03:02:26.307Z,21.91
2017-01-28T03:02:54.906Z,21.85
2017-01-28T03:03:23.451Z,21.85
2017-01-28T03:03:51.969Z,21.8
2017-01-28T03:04:20.595Z,21.84
2017-01-28T03:04:49.099Z,21.89
2017-01-28T03:05:17.697Z,21.85
2017-01-28T03:05:46.286Z,21.83
2017-01-28T03:06:14.934Z,21.89
2017-01-28T03:06:43.558Z,21.83
2017-01-28T03:07:12.050Z,21.91
2017-01-28T03:07:40.665Z,21.88
2017-01-28T03:08:09.271Z,21.99
2017-01-28T03:08:37.904Z,21.89
2017-01-28T03:09:06.567Z,22
2017-01-28T03:09:35.171Z,21.89
2017-01-28T03:10:03.706Z,21.92
2017-01-28T03:10:32.331Z,21.88
2017-01-28T03:11:00.971Z,21.88
2017-01-28T03:11:29.590Z,21.92
2017-01-28T03:11:58.176Z,21.89
2017-01-28T03:12:26.690Z,21.94
2017-01-28T03:12:55.220Z,21.88
2017-01-28T03:13:23.832Z,21.89
2017-01-28T03:13:52.438Z,21.83
2017-01-28T03:14:21.072Z,21.85
2017-01-28T03:14:49.717Z,21.8
2017-01-28T03:15:18.313Z,21.81
2017-01-28T03:15:46.955Z,21.8
2017-01-28T03:16:15.563Z,21.8
2017-01-28T03:16:44.183Z,21.81
2017-01-28T03:17:12.827Z,21.81
2017-01-28T03:17:41.333Z,21.8
2017-01-28T03:18:09.960Z,21.78
2017-01-28T03:18:38.578Z,21.77
2017-01-28T03:19:07.082Z,21.81
2017-01-28T03:19:35.709Z,21.78
2017-01-28T03:20:04.345Z,21.74
2017-01-28T03:20:32.961Z,21.75
2017-01-28T03:21:01.572Z,21.77
2017-01-28T03:21:30.097Z,21.7
2017-01-28T03:21:58.638Z,21.72
2017-01-28T03:22:27.263Z,21.69
2017-01-28T03:22:55.779Z,21.66
2017-01-28T03:23:24.389Z,21.77
2017-01-28T03:23:52.998Z,21.7
2017-01-28T03:24:21.626Z,21.66
2017-01-28T03:24:50.189Z,21.65
2017-01-28T03:25:18.811Z,21.66
2017-01-28T03:25:47.419Z,21.69
2017-01-28T03:26:16.042Z,21.68
2017-01-28T03:26:44.648Z,21.69
2017-01-28T03:27:13.287Z,21.74
2017-01-28T03:27:43.768Z,21.66
2017-01-28T03:28:12.405Z,21.72
2017-01-28T03:28:41.035Z,21.62
2017-01-28T03:29:09.644Z,21.74
2017-01-28T03:29:38.178Z,21.8
2017-01-28T03:30:06.772Z,21.83
2017-01-28T03:30:35.237Z,21.8
2017-01-28T03:31:03.758Z,21.75
2017-01-28T03:31:32.367Z,21.8
2017-01-28T03:32:00.990Z,21.88
2017-01-28T03:32:29.632Z,21.78
2017-01-28T03:32:58.253Z,21.85
2017-01-28T03:33:26.773Z,21.88
2017-01-28T03:33:55.390Z,21.92
2017-01-28T03:34:24.006Z,21.88
2017-01-28T03:34:52.631Z,21.88
2017-01-28T03:35:21.225Z,21.92
2017-01-28T03:35:49.820Z,21.91
2017-01-28T03:36:18.342Z,21.89
2017-01-28T03:36:46.944Z,21.99
2017-01-28T03:37:15.474Z,21.94
2017-01-28T03:37:44.230Z,21.91
2017-01-28T03:38:12.867Z,21.85
2017-01-28T03:38:41.475Z,21.94
2017-01-28T03:39:10.069Z,21.91
2017-01-28T03:39:38.693Z,21.96
2017-01-28T03:40:07.276Z,21.89
2017-01-28T03:40:35.873Z,21.89
2017-01-28T03:41:04.492Z,21.85
2017-01-28T03:41:33.035Z,21.88
2017-01-28T03:42:01.644Z,21.81
2017-01-28T03:42:30.370Z,21.85
2017-01-28T03:42:58.983Z,21.84
2017-01-28T03:43:27.444Z,21.78
2017-01-28T03:43:56.057Z,21.77
2017-01-28T03:44:24.747Z,21.78
2017-01-28T03:44:53.352Z,21.74
2017-01-28T03:45:22.039Z,21.77
2017-01-28T03:45:50.451Z,21.77
2017-01-28T03:46:18.959Z,21.74
2017-01-28T03:46:47.551Z,21.74
2017-01-28T03:47:16.155Z,21.78
2017-01-28T03:47:44.767Z,21.72
2017-01-28T03:48:13.368Z,21.77
2017-01-28T03:48:41.912Z,21.8
2017-01-28T03:49:10.449Z,21.72
2017-01-28T03:49:38.984Z,21.77
2017-01-28T03:50:07.409Z,21.74
2017-01-28T03:50:35.864Z,21.78
2017-01-28T03:51:04.494Z,21.81
2017-01-28T03:51:33.076Z,21.74
2017-01-28T03:52:01.668Z,21.78
2017-01-28T03:52:30.287Z,21.81
2017-01-28T03:52:58.790Z,21.81
2017-01-28T03:53:27.408Z,21.77
2017-01-28T03:53:55.909Z,21.75
2017-01-28T03:54:24.543Z,21.78
2017-01-28T03:54:53.157Z,21.8
2017-01-28T03:55:21.747Z,21.8
2017-01-28T03:55:50.358Z,21.74
2017-01-28T03:56:18.969Z,21.69
2017-01-28T03:56:47.612Z,21.62
2017-01-28T03:57:16.172Z,21.69
2017-01-28T03:57:44.598Z,21.66
2017-01-28T03:58:13.173Z,21.68
2017-01-28T03:58:41.601Z,21.63
2017-01-28T03:59:10.245Z,21.66
2017-01-28T03:59:38.856Z,21.65
2017-01-28T04:00:07.458Z,21.68
2017-01-28T04:00:36.081Z,21.66
2017-01-28T04:01:04.662Z,21.62
2017-01-28T04:01:33.294Z,21.56
2017-01-28T04:02:01.813Z,21.53
2017-01-28T04:02:30.282Z,21.62
2017-01-28T04:02:58.821Z,21.6
2017-01-28T04:03:27.495Z,21.6
2017-01-28T04:03:55.916Z,21.54
2017-01-28T04:04:24.538Z,21.6
2017-01-28T04:04:53.174Z,21.5
2017-01-28T04:05:21.793Z,21.62
2017-01-28T04:05:50.392Z,21.59
2017-01-28T04:06:18.990Z,21.56
2017-01-28T04:06:47.484Z,21.5
2017-01-28T04:07:16.091Z,21.53
2017-01-28T04:07:44.628Z,21.59
2017-01-28T04:08:13.274Z,21.53
2017-01-28T04:08:41.776Z,21.56
2017-01-28T04:09:10.410Z,21.48
2017-01-28T04:09:39.022Z,21.44
2017-01-28T04:10:07.557Z,21.44
2017-01-28T04:10:36.068Z,21.48
2017-01-28T04:11:04.612Z,21.53
2017-01-28T04:11:33.240Z,21.43
2017-01-28T04:12:03.517Z,21.45
2017-01-28T04:12:32.173Z,21.48
2017-01-28T04:13:00.692Z,21.41
2017-01-28T04:13:29.215Z,21.5
2017-01-28T04:13:57.737Z,21.48
2017-01-28T04:14:26.323Z,21.44
2017-01-28T04:14:54.983Z,21.44
2017-01-28T04:15:25.017Z,21.47
2017-01-28T04:15:53.549Z,21.45
2017-01-28T04:16:22.152Z,21.43
2017-01-28T04:16:50.772Z,21.53
2017-01-28T04:17:19.310Z,21.5
2017-01-28T04:17:47.915Z,21.41
2017-01-28T04:18:16.372Z,21.44
2017-01-28T04:18:44.979Z,21.54
2017-01-28T04:19:13.651Z,21.5
2017-01-28T04:19:42.179Z,21.54
2017-01-28T04:20:10.826Z,21.44
2017-01-28T04:20:39.454Z,21.54
2017-01-28T04:21:08.100Z,21.48
2017-01-28T04:21:36.711Z,21.51
2017-01-28T04:22:05.346Z,21.53
2017-01-28T04:22:34.021Z,21.51
2017-01-28T04:23:02.544Z,21.5
2017-01-28T04:23:31.187Z,21.53
2017-01-28T04:24:00.966Z,21.48
2017-01-28T04:24:29.583Z,21.48
2017-01-28T04:24:58.221Z,21.5
2017-01-28T04:25:26.845Z,21.45
2017-01-28T04:25:55.382Z,21.41
2017-01-28T04:26:23.931Z,21.4
2017-01-28T04:26:52.422Z,21.38
2017-01-28T04:27:21.047Z,21.37
2017-01-28T04:27:49.655Z,21.4
2017-01-28T04:28:18.273Z,21.43
2017-01-28T04:28:46.904Z,21.45
2017-01-28T04:29:15.417Z,21.4
2017-01-28T04:29:44.033Z,21.38
2017-01-28T04:30:12.655Z,21.41
2017-01-28T04:30:41.264Z,21.43
2017-01-28T04:31:09.858Z,21.44
2017-01-28T04:31:38.472Z,21.38
2017-01-28T04:32:07.102Z,21.32
2017-01-28T04:32:35.652Z,21.35
2017-01-28T04:33:04.179Z,21.33
2017-01-28T04:33:32.709Z,21.35
2017-01-28T04:34:01.354Z,21.33
2017-01-28T04:34:29.807Z,21.28
2017-01-28T04:34:58.437Z,21.32
2017-01-28T04:35:27.046Z,21.3
2017-01-28T04:35:55.647Z,21.29
2017-01-28T04:36:24.152Z,21.37
2017-01-28T04:36:52.678Z,21.35
2017-01-28T04:37:21.282Z,21.35
2017-01-28T04:37:49.931Z,21.33
2017-01-28T04:38:18.525Z,21.35
2017-01-28T04:38:47.135Z,21.29
2017-01-28T04:39:15.730Z,21.33
2017-01-28T04:39:44.353Z,21.3
2017-01-28T04:40:12.856Z,21.3
2017-01-28T04:40:41.415Z,21.4
2017-01-28T04:41:10.047Z,21.33
2017-01-28T04:41:38.659Z,21.33
2017-01-28T04:42:07.263Z,21.37
2017-01-28T04:42:35.803Z,21.35
2017-01-28T04:43:04.405Z,21.29
2017-01-28T04:43:32.914Z,21.33
2017-01-28T04:44:01.524Z,21.28
2017-01-28T04:44:30.020Z,21.33
2017-01-28T04:44:58.557Z,21.35
2017-01-28T04:45:27.087Z,21.38
2017-01-28T04:45:55.668Z,21.32
2017-01-28T04:46:24.181Z,21.37
2017-01-28T04:46:52.787Z,21.44
2017-01-28T04:47:21.405Z,21.41
2017-01-28T04:47:50.006Z,21.44
2017-01-28T04:48:18.626Z,21.38
2017-01-28T04:48:47.231Z,21.44
2017-01-28T04:49:15.843Z,21.41
2017-01-28T04:49:44.441Z,21.43
2017-01-28T04:50:13.058Z,21.41
2017-01-28T04:50:41.667Z,21.3
2017-01-28T04:51:10.278Z,21.41
2017-01-28T04:51:38.891Z,21.44
2017-01-28T04:52:07.465Z,21.38
2017-01-28T04:52:35.991Z,21.4
2017-01-28T04:53:04.550Z,21.44
2017-01-28T04:53:33.078Z,21.41
2017-01-28T04:54:01.716Z,21.41
2017-01-28T04:54:30.282Z,21.47
2017-01-28T04:54:58.826Z,21.44
2017-01-28T04:55:27.424Z,21.48
2017-01-28T04:55:56.001Z,21.48
2017-01-28T04:56:24.441Z,21.5
2017-01-28T04:56:53.059Z,21.47
2017-01-28T04:57:21.911Z,21.53
2017-01-28T04:57:50.423Z,21.5
2017-01-28T04:58:19.095Z,21.53
2017-01-28T04:58:47.740Z,21.5
2017-01-28T04:59:16.429Z,21.5
2017-01-28T04:59:44.953Z,21.5
2017-01-28T05:00:13.481Z,21.45
2017-01-28T05:00:42.104Z,21.4
2017-01-28T05:01:10.725Z,21.45
2017-01-28T05:01:39.318Z,21.45
2017-01-28T05:02:07.964Z,21.48
2017-01-28T05:02:36.582Z,21.48
2017-01-28T05:03:05.196Z,21.48
2017-01-28T05:03:33.766Z,21.44
2017-01-28T05:04:02.362Z,21.5
2017-01-28T05:04:30.865Z,21.56
2017-01-28T05:04:59.454Z,21.56
2017-01-28T05:05:28.115Z,21.56
2017-01-28T05:05:56.731Z,21.53
2017-01-28T05:06:25.237Z,21.58
2017-01-28T05:06:53.840Z,21.47
2017-01-28T05:07:22.476Z,21.54
2017-01-28T05:07:51.001Z,21.56
2017-01-28T05:08:19.618Z,21.51
2017-01-28T05:08:48.075Z,21.5
2017-01-28T05:09:16.709Z,21.53
2017-01-28T05:09:45.330Z,21.48
2017-01-28T05:10:13.950Z,21.45
2017-01-28T05:10:42.568Z,21.47
2017-01-28T05:11:11.189Z,21.5
2017-01-28T05:11:39.783Z,21.53
2017-01-28T05:12:08.356Z,21.56
2017-01-28T05:12:36.993Z,21.51
2017-01-28T05:13:05.594Z,21.45
2017-01-28T05:13:34.210Z,21.56
2017-01-28T05:14:02.801Z,21.51
2017-01-28T05:14:31.412Z,21.51
2017-01-28T05:14:59.839Z,21.54
2017-01-28T05:15:28.441Z,21.54
2017-01-28T05:15:57.044Z,21.54
2017-01-28T05:16:25.699Z,21.53
2017-01-28T05:16:54.323Z,21.53
2017-01-28T05:17:23.100Z,21.54
2017-01-28T05:17:51.705Z,21.59
2017-01-28T05:18:20.362Z,21.53
2017-01-28T05:18:48.975Z,21.63
2017-01-28T05:19:17.604Z,21.54
2017-01-28T05:19:46.203Z,21.6
2017-01-28T05:20:14.751Z,21.53
2017-01-28T05:20:43.385Z,21.65
2017-01-28T05:21:11.994Z,21.56
2017-01-28T05:21:40.627Z,21.58
2017-01-28T05:22:09.224Z,21.54
2017-01-28T05:22:37.751Z,21.63
2017-01-28T05:23:06.359Z,21.51
2017-01-28T05:23:34.989Z,21.56
2017-01-28T05:24:03.632Z,21.53
2017-01-28T05:24:32.245Z,21.53
2017-01-28T05:25:00.850Z,21.54
2017-01-28T05:25:29.379Z,21.5
2017-01-28T05:25:57.998Z,21.48
2017-01-28T05:26:26.548Z,21.48
2017-01-28T05:26:55.157Z,21.53
2017-01-28T05:27:23.678Z,21.53
2017-01-28T05:27:52.196Z,21.5
2017-01-28T05:28:20.619Z,21.48
2017-01-28T05:28:49.246Z,21.53
2017-01-28T05:29:17.919Z,21.44
2017-01-28T05:29:46.424Z,21.48
2017-01-28T05:30:14.933Z,21.5
2017-01-28T05:30:43.539Z,21.51
2017-01-28T05:31:12.074Z,21.54
2017-01-28T05:31:40.644Z,21.44
2017-01-28T05:32:09.184Z,21.47
2017-01-28T05:32:37.798Z,21.56
2017-01-28T05:33:06.332Z,21.53
2017-01-28T05:33:34.981Z,21.56
2017-01-28T05:34:03.536Z,21.53
2017-01-28T05:34:32.143Z,21.54
2017-01-28T05:35:00.763Z,21.53
2017-01-28T05:35:29.377Z,21.59
2017-01-28T05:35:57.998Z,21.54
2017-01-28T05:36:26.539Z,21.5
2017-01-28T05:36:55.143Z,21.54
2017-01-28T05:37:23.676Z,21.66
2017-01-28T05:37:52.302Z,21.62
2017-01-28T05:38:20.916Z,21.54
2017-01-28T05:38:49.514Z,21.53
2017-01-28T05:39:17.933Z,21.53
2017-01-28T05:39:46.564Z,21.65
2017-01-28T05:40:15.058Z,21.53
2017-01-28T05:40:43.635Z,21.63
2017-01-28T05:41:12.240Z,21.54
2017-01-28T05:41:40.872Z,21.6
2017-01-28T05:42:09.506Z,21.63
2017-01-28T05:42:38.135Z,21.56
2017-01-28T05:43:06.774Z,21.59
2017-01-28T05:43:35.289Z,21.62
2017-01-28T05:44:03.899Z,21.66
2017-01-28T05:44:32.523Z,21.62
2017-01-28T05:45:01.117Z,21.53
2017-01-28T05:45:29.638Z,21.51
2017-01-28T05:45:58.249Z,21.62
2017-01-28T05:46:26.846Z,21.58
2017-01-28T05:46:55.485Z,21.58
2017-01-28T05:47:24.021Z,21.53
2017-01-28T05:47:52.639Z,21.59
2017-01-28T05:48:21.147Z,21.56
2017-01-28T05:48:50.050Z,21.5
2017-01-28T05:49:18.570Z,21.53
2017-01-28T05:49:47.186Z,21.56
2017-01-28T05:50:15.785Z,21.48
2017-01-28T05:50:44.318Z,21.54
2017-01-28T05:51:12.940Z,21.43
2017-01-28T05:51:41.541Z,21.48
2017-01-28T05:52:10.082Z,21.48
2017-01-28T05:52:38.642Z,21.56
2017-01-28T05:53:07.194Z,21.54
2017-01-28T05:53:35.826Z,21.56
2017-01-28T05:54:04.367Z,21.48
2017-01-28T05:54:32.878Z,21.51
2017-01-28T05:55:01.488Z,21.44
2017-01-28T05:55:30.025Z,21.53
2017-01-28T05:55:58.627Z,21.48
2017-01-28T05:56:27.249Z,21.51
2017-01-28T05:56:55.749Z,21.51
2017-01-28T05:57:24.282Z,21.54
2017-01-28T05:57:52.892Z,21.56
2017-01-28T05:58:21.509Z,21.56
2017-01-28T05:58:50.017Z,21.58
2017-01-28T05:59:18.524Z,21.51
2017-01-28T05:59:47.129Z,21.51
2017-01-28T06:00:15.755Z,21.56
2017-01-28T06:00:44.419Z,21.51
2017-01-28T06:01:12.931Z,21.53
2017-01-28T06:01:41.443Z,21.53
2017-01-28T06:02:10.068Z,21.51
2017-01-28T06:02:38.704Z,21.54
2017-01-28T06:03:07.359Z,21.53
2017-01-28T06:03:35.895Z,21.56
2017-01-28T06:04:04.519Z,21.56
2017-01-28T06:04:33.167Z,21.5
2017-01-28T06:05:01.779Z,21.54
2017-01-28T06:05:30.406Z,21.5
2017-01-28T06:05:59.015Z,21.54
2017-01-28T06:06:27.629Z,21.51
2017-01-28T06:06:56.250Z,21.6
2017-01-28T06:07:24.845Z,21.51
2017-01-28T06:07:53.488Z,21.51
2017-01-28T06:08:22.105Z,21.56
2017-01-28T06:08:50.657Z,21.56
2017-01-28T06:09:19.279Z,21.56
2017-01-28T06:09:47.906Z,21.53
2017-01-28T06:10:16.509Z,21.54